sensor_id;sensor_type;location;lat;lon;timestamp;temperature;humidity
14142;DHT22;7151;52.246;4.820;2022-12-19T00:01:17;5.00;84.30
14142;DHT22;7151;52.246;4.820;2022-12-19T00:03:55;5.00;84.50
14142;DHT22;7151;52.246;4.820;2022-12-19T00:06:22;5.00;84.30
14142;DHT22;7151;52.246;4.820;2022-12-19T00:08:49;5.10;84.40
14142;DHT22;7151;52.246;4.820;2022-12-19T00:11:17;5.00;84.60
14142;DHT22;7151;52.246;4.820;2022-12-19T00:13:43;5.00;84.60
14142;DHT22;7151;52.246;4.820;2022-12-19T00:16:12;5.10;84.60
14142;DHT22;7151;52.246;4.820;2022-12-19T00:18:39;5.10;84.70
14142;DHT22;7151;52.246;4.820;2022-12-19T00:21:05;5.10;84.70
14142;DHT22;7151;52.246;4.820;2022-12-19T00:23:33;5.10;84.80
14142;DHT22;7151;52.246;4.820;2022-12-19T00:26:26;5.10;84.90
14142;DHT22;7151;52.246;4.820;2022-12-19T00:28:54;5.10;85.00
14142;DHT22;7151;52.246;4.820;2022-12-19T00:31:21;5.10;85.20
14142;DHT22;7151;52.246;4.820;2022-12-19T00:33:47;5.20;85.10
14142;DHT22;7151;52.246;4.820;2022-12-19T00:36:17;5.20;85.20
14142;DHT22;7151;52.246;4.820;2022-12-19T00:38:43;5.20;85.20
14142;DHT22;7151;52.246;4.820;2022-12-19T00:41:19;5.20;85.30
14142;DHT22;7151;52.246;4.820;2022-12-19T00:43:52;5.20;85.30
14142;DHT22;7151;52.246;4.820;2022-12-19T00:46:18;5.20;85.40
14142;DHT22;7151;52.246;4.820;2022-12-19T00:48:44;5.20;85.50
14142;DHT22;7151;52.246;4.820;2022-12-19T00:53:36;5.20;85.60
14142;DHT22;7151;52.246;4.820;2022-12-19T00:56:04;5.30;85.80
14142;DHT22;7151;52.246;4.820;2022-12-19T00:58:30;5.30;85.90
14142;DHT22;7151;52.246;4.820;2022-12-19T01:00:56;5.30;86.00
14142;DHT22;7151;52.246;4.820;2022-12-19T01:03:22;5.30;86.10
14142;DHT22;7151;52.246;4.820;2022-12-19T01:05:49;5.30;86.00
14142;DHT22;7151;52.246;4.820;2022-12-19T01:08:15;5.40;86.10
14142;DHT22;7151;52.246;4.820;2022-12-19T01:10:45;5.30;86.10
14142;DHT22;7151;52.246;4.820;2022-12-19T01:13:11;5.40;86.50
14142;DHT22;7151;52.246;4.820;2022-12-19T01:15:38;5.40;86.30
14142;DHT22;7151;52.246;4.820;2022-12-19T01:18:06;5.40;86.30
14142;DHT22;7151;52.246;4.820;2022-12-19T01:20:37;5.40;86.40
14142;DHT22;7151;52.246;4.820;2022-12-19T01:23:02;5.40;86.70
14142;DHT22;7151;52.246;4.820;2022-12-19T01:25:28;5.50;86.70
14142;DHT22;7151;52.246;4.820;2022-12-19T01:27:55;5.50;86.80
14142;DHT22;7151;52.246;4.820;2022-12-19T01:30:21;5.50;86.90
14142;DHT22;7151;52.246;4.820;2022-12-19T01:32:47;5.50;87.00
14142;DHT22;7151;52.246;4.820;2022-12-19T01:35:12;5.50;87.00
14142;DHT22;7151;52.246;4.820;2022-12-19T01:37:38;5.50;87.10
14142;DHT22;7151;52.246;4.820;2022-12-19T01:40:04;5.50;87.10
14142;DHT22;7151;52.246;4.820;2022-12-19T01:42:35;5.60;87.40
14142;DHT22;7151;52.246;4.820;2022-12-19T01:50:28;5.60;87.40
14142;DHT22;7151;52.246;4.820;2022-12-19T01:52:56;5.70;87.70
14142;DHT22;7151;52.246;4.820;2022-12-19T01:55:22;5.70;87.70
14142;DHT22;7151;52.246;4.820;2022-12-19T01:57:48;5.70;87.70
14142;DHT22;7151;52.246;4.820;2022-12-19T02:00:14;5.70;87.80
14142;DHT22;7151;52.246;4.820;2022-12-19T02:02:59;5.80;88.00
14142;DHT22;7151;52.246;4.820;2022-12-19T02:05:26;5.80;88.10
14142;DHT22;7151;52.246;4.820;2022-12-19T02:07:52;5.80;88.00
14142;DHT22;7151;52.246;4.820;2022-12-19T02:10:18;5.80;88.10
14142;DHT22;7151;52.246;4.820;2022-12-19T02:12:44;5.90;88.20
14142;DHT22;7151;52.246;4.820;2022-12-19T02:15:11;5.90;88.30
14142;DHT22;7151;52.246;4.820;2022-12-19T02:31:33;6.00;88.60
14142;DHT22;7151;52.246;4.820;2022-12-19T02:34:27;6.00;88.60
14142;DHT22;7151;52.246;4.820;2022-12-19T02:37:08;6.00;88.70
14142;DHT22;7151;52.246;4.820;2022-12-19T02:39:45;6.10;88.80
14142;DHT22;7151;52.246;4.820;2022-12-19T02:42:21;6.10;88.70
14142;DHT22;7151;52.246;4.820;2022-12-19T02:44:51;6.10;88.90
14142;DHT22;7151;52.246;4.820;2022-12-19T02:47:20;6.10;89.00
14142;DHT22;7151;52.246;4.820;2022-12-19T02:49:46;6.10;89.20
14142;DHT22;7151;52.246;4.820;2022-12-19T02:55:21;6.20;89.30
14142;DHT22;7151;52.246;4.820;2022-12-19T03:00:21;6.20;89.30
14142;DHT22;7151;52.246;4.820;2022-12-19T03:03:30;6.20;89.50
14142;DHT22;7151;52.246;4.820;2022-12-19T03:06:22;6.20;89.50
14142;DHT22;7151;52.246;4.820;2022-12-19T03:09:02;6.30;89.70
14142;DHT22;7151;52.246;4.820;2022-12-19T03:11:34;6.30;89.90
14142;DHT22;7151;52.246;4.820;2022-12-19T03:14:05;6.30;90.10
14142;DHT22;7151;52.246;4.820;2022-12-19T03:16:35;6.30;90.00
14142;DHT22;7151;52.246;4.820;2022-12-19T03:19:02;6.40;90.00
14142;DHT22;7151;52.246;4.820;2022-12-19T03:21:32;6.40;90.00
14142;DHT22;7151;52.246;4.820;2022-12-19T03:23:59;6.40;90.00
14142;DHT22;7151;52.246;4.820;2022-12-19T03:26:30;6.40;90.10
14142;DHT22;7151;52.246;4.820;2022-12-19T03:29:33;6.40;90.10
14142;DHT22;7151;52.246;4.820;2022-12-19T03:32:02;6.50;90.30
14142;DHT22;7151;52.246;4.820;2022-12-19T03:34:40;6.50;90.20
14142;DHT22;7151;52.246;4.820;2022-12-19T03:37:11;6.50;90.20
14142;DHT22;7151;52.246;4.820;2022-12-19T03:39:38;6.60;90.20
14142;DHT22;7151;52.246;4.820;2022-12-19T03:42:05;6.60;90.20
14142;DHT22;7151;52.246;4.820;2022-12-19T03:44:52;6.60;90.30
14142;DHT22;7151;52.246;4.820;2022-12-19T03:49:54;6.70;90.30
14142;DHT22;7151;52.246;4.820;2022-12-19T03:52:35;6.70;90.30
14142;DHT22;7151;52.246;4.820;2022-12-19T03:55:11;6.70;90.40
14142;DHT22;7151;52.246;4.820;2022-12-19T03:57:55;6.70;90.50
14142;DHT22;7151;52.246;4.820;2022-12-19T04:00:22;6.80;90.40
14142;DHT22;7151;52.246;4.820;2022-12-19T04:02:52;6.80;90.50
14142;DHT22;7151;52.246;4.820;2022-12-19T04:05:24;6.80;90.50
14142;DHT22;7151;52.246;4.820;2022-12-19T04:07:54;6.80;90.50
14142;DHT22;7151;52.246;4.820;2022-12-19T04:10:22;6.80;90.50
14142;DHT22;7151;52.246;4.820;2022-12-19T04:12:58;6.80;90.60
14142;DHT22;7151;52.246;4.820;2022-12-19T04:15:44;6.90;90.60
14142;DHT22;7151;52.246;4.820;2022-12-19T04:18:13;6.90;90.60
14142;DHT22;7151;52.246;4.820;2022-12-19T04:20:43;6.90;90.60
14142;DHT22;7151;52.246;4.820;2022-12-19T04:25:48;6.90;90.70
14142;DHT22;7151;52.246;4.820;2022-12-19T04:28:23;6.90;90.60
14142;DHT22;7151;52.246;4.820;2022-12-19T04:30:50;7.00;90.70
14142;DHT22;7151;52.246;4.820;2022-12-19T04:33:16;7.00;91.10
14142;DHT22;7151;52.246;4.820;2022-12-19T04:35:42;7.00;90.80
14142;DHT22;7151;52.246;4.820;2022-12-19T04:38:07;7.00;90.80
14142;DHT22;7151;52.246;4.820;2022-12-19T04:40:34;7.00;90.80
14142;DHT22;7151;52.246;4.820;2022-12-19T04:43:00;7.10;90.90
14142;DHT22;7151;52.246;4.820;2022-12-19T04:45:25;7.10;90.90
14142;DHT22;7151;52.246;4.820;2022-12-19T04:47:51;7.10;90.90
14142;DHT22;7151;52.246;4.820;2022-12-19T04:50:17;7.10;90.90
14142;DHT22;7151;52.246;4.820;2022-12-19T04:52:42;7.10;90.90
14142;DHT22;7151;52.246;4.820;2022-12-19T04:55:08;7.10;91.00
14142;DHT22;7151;52.246;4.820;2022-12-19T04:57:34;7.20;91.00
14142;DHT22;7151;52.246;4.820;2022-12-19T05:00:00;7.20;91.20
14142;DHT22;7151;52.246;4.820;2022-12-19T05:02:28;7.20;91.20
14142;DHT22;7151;52.246;4.820;2022-12-19T05:04:54;7.20;91.20
14142;DHT22;7151;52.246;4.820;2022-12-19T05:07:19;7.30;91.30
14142;DHT22;7151;52.246;4.820;2022-12-19T05:09:45;7.30;91.30
14142;DHT22;7151;52.246;4.820;2022-12-19T05:12:11;7.40;91.30
14142;DHT22;7151;52.246;4.820;2022-12-19T05:14:36;7.40;91.30
14142;DHT22;7151;52.246;4.820;2022-12-19T05:17:02;7.40;91.50
14142;DHT22;7151;52.246;4.820;2022-12-19T05:19:28;7.50;91.60
14142;DHT22;7151;52.246;4.820;2022-12-19T05:21:53;7.50;91.60
14142;DHT22;7151;52.246;4.820;2022-12-19T05:24:19;7.50;91.60
14142;DHT22;7151;52.246;4.820;2022-12-19T05:26:44;7.60;91.70
14142;DHT22;7151;52.246;4.820;2022-12-19T05:29:10;7.60;91.60
14142;DHT22;7151;52.246;4.820;2022-12-19T05:31:36;7.60;91.60
14142;DHT22;7151;52.246;4.820;2022-12-19T05:34:01;7.70;91.70
14142;DHT22;7151;52.246;4.820;2022-12-19T05:36:27;7.70;91.70
14142;DHT22;7151;52.246;4.820;2022-12-19T05:38:52;7.70;91.80
14142;DHT22;7151;52.246;4.820;2022-12-19T05:41:19;7.80;91.80
14142;DHT22;7151;52.246;4.820;2022-12-19T05:43:49;7.80;91.90
14142;DHT22;7151;52.246;4.820;2022-12-19T05:46:15;7.90;91.90
14142;DHT22;7151;52.246;4.820;2022-12-19T05:48:40;7.90;91.90
14142;DHT22;7151;52.246;4.820;2022-12-19T05:51:06;7.90;92.00
14142;DHT22;7151;52.246;4.820;2022-12-19T05:53:34;7.90;92.00
14142;DHT22;7151;52.246;4.820;2022-12-19T05:56:09;8.00;92.10
14142;DHT22;7151;52.246;4.820;2022-12-19T05:58:35;8.00;92.20
14142;DHT22;7151;52.246;4.820;2022-12-19T06:01:03;8.10;92.20
14142;DHT22;7151;52.246;4.820;2022-12-19T06:03:29;8.10;92.20
14142;DHT22;7151;52.246;4.820;2022-12-19T06:05:54;8.20;92.30
14142;DHT22;7151;52.246;4.820;2022-12-19T06:08:21;8.20;92.40
14142;DHT22;7151;52.246;4.820;2022-12-19T06:10:46;8.30;92.40
14142;DHT22;7151;52.246;4.820;2022-12-19T06:13:12;8.30;92.50
14142;DHT22;7151;52.246;4.820;2022-12-19T06:15:37;8.40;92.50
14142;DHT22;7151;52.246;4.820;2022-12-19T06:18:03;8.40;92.50
14142;DHT22;7151;52.246;4.820;2022-12-19T06:20:29;8.40;92.60
14142;DHT22;7151;52.246;4.820;2022-12-19T06:22:54;8.50;92.70
14142;DHT22;7151;52.246;4.820;2022-12-19T06:25:20;8.50;92.70
14142;DHT22;7151;52.246;4.820;2022-12-19T06:27:45;8.60;92.70
14142;DHT22;7151;52.246;4.820;2022-12-19T06:30:11;8.60;92.70
14142;DHT22;7151;52.246;4.820;2022-12-19T06:32:37;8.60;92.80
14142;DHT22;7151;52.246;4.820;2022-12-19T06:35:02;8.70;92.80
14142;DHT22;7151;52.246;4.820;2022-12-19T06:37:28;8.70;92.80
14142;DHT22;7151;52.246;4.820;2022-12-19T06:39:54;8.70;92.80
14142;DHT22;7151;52.246;4.820;2022-12-19T06:42:19;8.80;92.90
14142;DHT22;7151;52.246;4.820;2022-12-19T06:44:49;8.80;92.90
14142;DHT22;7151;52.246;4.820;2022-12-19T06:47:15;8.80;93.00
14142;DHT22;7151;52.246;4.820;2022-12-19T06:49:41;8.90;93.10
14142;DHT22;7151;52.246;4.820;2022-12-19T06:52:06;8.90;93.10
14142;DHT22;7151;52.246;4.820;2022-12-19T06:54:32;9.00;93.20
14142;DHT22;7151;52.246;4.820;2022-12-19T06:56:57;9.00;93.20
14142;DHT22;7151;52.246;4.820;2022-12-19T06:59:23;9.00;93.20
14142;DHT22;7151;52.246;4.820;2022-12-19T07:02:11;9.10;93.20
14142;DHT22;7151;52.246;4.820;2022-12-19T07:04:48;9.10;93.20
14142;DHT22;7151;52.246;4.820;2022-12-19T07:07:14;9.10;93.20
14142;DHT22;7151;52.246;4.820;2022-12-19T07:09:40;9.20;93.20
14142;DHT22;7151;52.246;4.820;2022-12-19T07:12:06;9.20;93.20
14142;DHT22;7151;52.246;4.820;2022-12-19T07:14:32;9.20;93.30
14142;DHT22;7151;52.246;4.820;2022-12-19T07:16:58;9.20;93.40
14142;DHT22;7151;52.246;4.820;2022-12-19T07:19:26;9.30;93.40
14142;DHT22;7151;52.246;4.820;2022-12-19T07:21:53;9.30;93.40
14142;DHT22;7151;52.246;4.820;2022-12-19T07:24:19;9.30;93.40
14142;DHT22;7151;52.246;4.820;2022-12-19T07:26:44;9.40;93.40
14142;DHT22;7151;52.246;4.820;2022-12-19T07:29:11;9.40;93.40
14142;DHT22;7151;52.246;4.820;2022-12-19T07:31:37;9.40;93.40
14142;DHT22;7151;52.246;4.820;2022-12-19T07:34:03;9.50;93.40
14142;DHT22;7151;52.246;4.820;2022-12-19T07:36:28;9.50;93.50
14142;DHT22;7151;52.246;4.820;2022-12-19T07:38:54;9.50;93.50
14142;DHT22;7151;52.246;4.820;2022-12-19T07:41:19;9.50;93.50
14142;DHT22;7151;52.246;4.820;2022-12-19T07:43:45;9.50;93.60
14142;DHT22;7151;52.246;4.820;2022-12-19T07:46:11;9.50;93.60
14142;DHT22;7151;52.246;4.820;2022-12-19T07:48:37;9.60;93.50
14142;DHT22;7151;52.246;4.820;2022-12-19T07:51:03;9.60;93.50
14142;DHT22;7151;52.246;4.820;2022-12-19T07:53:30;9.60;93.50
14142;DHT22;7151;52.246;4.820;2022-12-19T07:55:56;9.60;93.50
14142;DHT22;7151;52.246;4.820;2022-12-19T07:58:22;9.70;93.50
14142;DHT22;7151;52.246;4.820;2022-12-19T08:00:55;9.70;93.60
14142;DHT22;7151;52.246;4.820;2022-12-19T08:03:22;9.70;93.90
14142;DHT22;7151;52.246;4.820;2022-12-19T08:05:48;9.70;93.60
14142;DHT22;7151;52.246;4.820;2022-12-19T08:08:13;9.70;93.60
14142;DHT22;7151;52.246;4.820;2022-12-19T08:10:39;9.70;93.60
14142;DHT22;7151;52.246;4.820;2022-12-19T08:13:06;9.70;93.60
14142;DHT22;7151;52.246;4.820;2022-12-19T08:15:31;9.80;93.60
14142;DHT22;7151;52.246;4.820;2022-12-19T08:17:57;9.80;93.60
14142;DHT22;7151;52.246;4.820;2022-12-19T08:20:22;9.80;93.70
14142;DHT22;7151;52.246;4.820;2022-12-19T08:22:48;9.80;93.60
14142;DHT22;7151;52.246;4.820;2022-12-19T08:25:13;9.90;93.70
14142;DHT22;7151;52.246;4.820;2022-12-19T08:27:39;9.90;93.70
14142;DHT22;7151;52.246;4.820;2022-12-19T08:30:07;9.90;93.70
14142;DHT22;7151;52.246;4.820;2022-12-19T08:32:33;9.90;93.70
14142;DHT22;7151;52.246;4.820;2022-12-19T08:34:58;9.90;93.70
14142;DHT22;7151;52.246;4.820;2022-12-19T08:37:24;9.90;93.80
14142;DHT22;7151;52.246;4.820;2022-12-19T08:39:49;10.00;93.70
14142;DHT22;7151;52.246;4.820;2022-12-19T08:42:15;10.00;93.70
14142;DHT22;7151;52.246;4.820;2022-12-19T08:44:40;10.00;93.70
14142;DHT22;7151;52.246;4.820;2022-12-19T08:47:06;10.00;93.80
14142;DHT22;7151;52.246;4.820;2022-12-19T08:49:32;10.00;93.70
14142;DHT22;7151;52.246;4.820;2022-12-19T08:51:57;10.00;93.80
14142;DHT22;7151;52.246;4.820;2022-12-19T08:54:23;10.10;93.80
14142;DHT22;7151;52.246;4.820;2022-12-19T08:56:48;10.10;93.80
14142;DHT22;7151;52.246;4.820;2022-12-19T08:59:14;10.10;93.90
14142;DHT22;7151;52.246;4.820;2022-12-19T09:01:40;10.10;93.80
14142;DHT22;7151;52.246;4.820;2022-12-19T09:04:06;10.10;93.80
14142;DHT22;7151;52.246;4.820;2022-12-19T09:06:31;10.10;93.80
14142;DHT22;7151;52.246;4.820;2022-12-19T09:08:57;10.10;93.80
14142;DHT22;7151;52.246;4.820;2022-12-19T09:11:24;10.20;93.80
14142;DHT22;7151;52.246;4.820;2022-12-19T09:13:49;10.20;93.80
14142;DHT22;7151;52.246;4.820;2022-12-19T09:16:20;10.20;93.80
14142;DHT22;7151;52.246;4.820;2022-12-19T09:18:48;10.20;93.90
14142;DHT22;7151;52.246;4.820;2022-12-19T09:21:15;10.20;93.80
14142;DHT22;7151;52.246;4.820;2022-12-19T09:23:41;10.20;93.80
14142;DHT22;7151;52.246;4.820;2022-12-19T09:26:11;10.20;93.80
14142;DHT22;7151;52.246;4.820;2022-12-19T09:28:39;10.30;93.90
14142;DHT22;7151;52.246;4.820;2022-12-19T09:31:08;10.30;93.90
14142;DHT22;7151;52.246;4.820;2022-12-19T09:33:35;10.30;94.00
14142;DHT22;7151;52.246;4.820;2022-12-19T09:36:01;10.30;93.90
14142;DHT22;7151;52.246;4.820;2022-12-19T09:38:28;10.30;93.90
14142;DHT22;7151;52.246;4.820;2022-12-19T09:43:58;10.30;93.90
14142;DHT22;7151;52.246;4.820;2022-12-19T09:49:11;10.30;93.90
14142;DHT22;7151;52.246;4.820;2022-12-19T09:51:43;10.30;93.90
14142;DHT22;7151;52.246;4.820;2022-12-19T09:54:17;10.40;93.90
14142;DHT22;7151;52.246;4.820;2022-12-19T09:56:44;10.30;93.90
14142;DHT22;7151;52.246;4.820;2022-12-19T09:59:25;10.40;93.90
14142;DHT22;7151;52.246;4.820;2022-12-19T10:07:47;10.40;93.90
14142;DHT22;7151;52.246;4.820;2022-12-19T10:10:15;10.40;93.90
14142;DHT22;7151;52.246;4.820;2022-12-19T10:15:24;10.40;94.00
14142;DHT22;7151;52.246;4.820;2022-12-19T10:18:03;10.50;94.10
14142;DHT22;7151;52.246;4.820;2022-12-19T10:20:36;10.50;94.20
14142;DHT22;7151;52.246;4.820;2022-12-19T10:31:17;10.60;94.20
14142;DHT22;7151;52.246;4.820;2022-12-19T10:33:49;10.60;94.20
14142;DHT22;7151;52.246;4.820;2022-12-19T10:36:16;10.60;94.20
14142;DHT22;7151;52.246;4.820;2022-12-19T10:41:46;10.70;94.30
14142;DHT22;7151;52.246;4.820;2022-12-19T10:44:13;10.70;94.30
14142;DHT22;7151;52.246;4.820;2022-12-19T10:46:45;10.70;94.30
14142;DHT22;7151;52.246;4.820;2022-12-19T10:49:11;10.70;94.30
14142;DHT22;7151;52.246;4.820;2022-12-19T10:51:38;10.70;94.30
14142;DHT22;7151;52.246;4.820;2022-12-19T10:54:04;10.70;94.20
14142;DHT22;7151;52.246;4.820;2022-12-19T10:56:31;10.80;94.30
14142;DHT22;7151;52.246;4.820;2022-12-19T10:58:57;10.80;94.30
14142;DHT22;7151;52.246;4.820;2022-12-19T11:01:38;10.80;94.40
14142;DHT22;7151;52.246;4.820;2022-12-19T11:04:30;10.80;94.30
14142;DHT22;7151;52.246;4.820;2022-12-19T11:09:37;10.90;94.30
14142;DHT22;7151;52.246;4.820;2022-12-19T11:14:33;10.90;94.50
14142;DHT22;7151;52.246;4.820;2022-12-19T11:16:59;10.90;94.30
14142;DHT22;7151;52.246;4.820;2022-12-19T11:19:38;10.90;94.20
14142;DHT22;7151;52.246;4.820;2022-12-19T11:22:21;10.90;94.30
14142;DHT22;7151;52.246;4.820;2022-12-19T11:24:52;10.90;94.30
14142;DHT22;7151;52.246;4.820;2022-12-19T11:27:39;11.00;94.40
14142;DHT22;7151;52.246;4.820;2022-12-19T11:32:42;11.00;94.30
14142;DHT22;7151;52.246;4.820;2022-12-19T11:35:23;11.00;94.30
14142;DHT22;7151;52.246;4.820;2022-12-19T11:37:53;11.00;94.30
14142;DHT22;7151;52.246;4.820;2022-12-19T11:43:05;11.00;94.30
14142;DHT22;7151;52.246;4.820;2022-12-19T11:48:23;11.10;94.40
14142;DHT22;7151;52.246;4.820;2022-12-19T11:51:05;11.10;94.40
14142;DHT22;7151;52.246;4.820;2022-12-19T11:53:38;11.10;94.40
14142;DHT22;7151;52.246;4.820;2022-12-19T11:56:13;11.10;94.40
14142;DHT22;7151;52.246;4.820;2022-12-19T11:58:39;11.10;94.40
14142;DHT22;7151;52.246;4.820;2022-12-19T12:06:48;11.20;94.50
14142;DHT22;7151;52.246;4.820;2022-12-19T12:09:43;11.20;94.50
14142;DHT22;7151;52.246;4.820;2022-12-19T12:12:23;11.20;94.50
14142;DHT22;7151;52.246;4.820;2022-12-19T12:17:48;11.20;94.50
14142;DHT22;7151;52.246;4.820;2022-12-19T12:20:30;11.20;94.50
14142;DHT22;7151;52.246;4.820;2022-12-19T12:25:56;11.20;94.50
14142;DHT22;7151;52.246;4.820;2022-12-19T12:39:33;11.30;94.60
14142;DHT22;7151;52.246;4.820;2022-12-19T12:44:41;11.30;94.60
14142;DHT22;7151;52.246;4.820;2022-12-19T12:47:25;11.30;94.60
14142;DHT22;7151;52.246;4.820;2022-12-19T12:50:05;11.30;94.60
14142;DHT22;7151;52.246;4.820;2022-12-19T12:52:39;11.30;94.60
14142;DHT22;7151;52.246;4.820;2022-12-19T12:57:43;11.40;94.60
14142;DHT22;7151;52.246;4.820;2022-12-19T13:00:20;11.40;94.60
14142;DHT22;7151;52.246;4.820;2022-12-19T13:02:50;11.40;94.60
14142;DHT22;7151;52.246;4.820;2022-12-19T13:08:46;11.40;94.60
14142;DHT22;7151;52.246;4.820;2022-12-19T13:11:37;11.40;94.60
14142;DHT22;7151;52.246;4.820;2022-12-19T13:17:09;11.50;94.50
14142;DHT22;7151;52.246;4.820;2022-12-19T13:19:36;11.50;94.50
14142;DHT22;7151;52.246;4.820;2022-12-19T13:24:39;11.50;94.40
14142;DHT22;7151;52.246;4.820;2022-12-19T13:30:01;11.50;94.40
14142;DHT22;7151;52.246;4.820;2022-12-19T13:35:00;11.50;94.40
14142;DHT22;7151;52.246;4.820;2022-12-19T13:37:29;11.50;94.40
14142;DHT22;7151;52.246;4.820;2022-12-19T13:42:24;11.60;94.40
14142;DHT22;7151;52.246;4.820;2022-12-19T13:45:27;11.60;94.40
14142;DHT22;7151;52.246;4.820;2022-12-19T13:47:55;11.60;94.40
14142;DHT22;7151;52.246;4.820;2022-12-19T13:50:48;11.60;94.30
14142;DHT22;7151;52.246;4.820;2022-12-19T13:53:19;11.60;94.30
14142;DHT22;7151;52.246;4.820;2022-12-19T13:55:46;11.60;94.20
14142;DHT22;7151;52.246;4.820;2022-12-19T13:58:24;11.60;94.20
14142;DHT22;7151;52.246;4.820;2022-12-19T14:00:51;11.60;94.20
14142;DHT22;7151;52.246;4.820;2022-12-19T14:03:20;11.70;94.20
14142;DHT22;7151;52.246;4.820;2022-12-19T14:05:48;11.70;94.20
14142;DHT22;7151;52.246;4.820;2022-12-19T14:08:21;11.70;94.20
14142;DHT22;7151;52.246;4.820;2022-12-19T14:10:48;11.70;94.50
14142;DHT22;7151;52.246;4.820;2022-12-19T14:13:18;11.70;94.10
14142;DHT22;7151;52.246;4.820;2022-12-19T14:16:03;11.70;94.10
14142;DHT22;7151;52.246;4.820;2022-12-19T14:18:31;11.70;94.00
14142;DHT22;7151;52.246;4.820;2022-12-19T14:21:17;11.70;94.00
14142;DHT22;7151;52.246;4.820;2022-12-19T14:23:42;11.70;94.00
14142;DHT22;7151;52.246;4.820;2022-12-19T14:26:27;11.70;94.00
14142;DHT22;7151;52.246;4.820;2022-12-19T14:28:59;11.70;93.90
14142;DHT22;7151;52.246;4.820;2022-12-19T14:31:26;11.70;93.90
14142;DHT22;7151;52.246;4.820;2022-12-19T14:33:52;11.70;93.90
14142;DHT22;7151;52.246;4.820;2022-12-19T14:36:25;11.70;93.90
14142;DHT22;7151;52.246;4.820;2022-12-19T14:38:51;11.70;93.90
14142;DHT22;7151;52.246;4.820;2022-12-19T14:44:17;11.70;93.80
14142;DHT22;7151;52.246;4.820;2022-12-19T14:47:03;11.70;93.70
14142;DHT22;7151;52.246;4.820;2022-12-19T14:49:32;11.70;93.70
14142;DHT22;7151;52.246;4.820;2022-12-19T14:52:01;11.70;93.70
14142;DHT22;7151;52.246;4.820;2022-12-19T14:54:26;11.70;93.70
14142;DHT22;7151;52.246;4.820;2022-12-19T14:56:58;11.70;93.70
14142;DHT22;7151;52.246;4.820;2022-12-19T14:59:42;11.70;93.70
14142;DHT22;7151;52.246;4.820;2022-12-19T15:02:29;11.70;93.60
14142;DHT22;7151;52.246;4.820;2022-12-19T15:05:02;11.70;93.60
14142;DHT22;7151;52.246;4.820;2022-12-19T15:07:30;11.70;93.60
14142;DHT22;7151;52.246;4.820;2022-12-19T15:10:20;11.70;93.60
14142;DHT22;7151;52.246;4.820;2022-12-19T15:12:48;11.70;93.60
14142;DHT22;7151;52.246;4.820;2022-12-19T15:15:54;11.70;93.60
14142;DHT22;7151;52.246;4.820;2022-12-19T15:20:54;11.70;93.60
14142;DHT22;7151;52.246;4.820;2022-12-19T15:23:20;11.70;93.60
14142;DHT22;7151;52.246;4.820;2022-12-19T15:25:46;11.70;93.60
14142;DHT22;7151;52.246;4.820;2022-12-19T15:28:21;11.70;93.60
14142;DHT22;7151;52.246;4.820;2022-12-19T15:31:00;11.70;93.60
14142;DHT22;7151;52.246;4.820;2022-12-19T15:33:27;11.70;93.60
14142;DHT22;7151;52.246;4.820;2022-12-19T15:35:53;11.70;93.60
14142;DHT22;7151;52.246;4.820;2022-12-19T15:38:19;11.70;93.60
14142;DHT22;7151;52.246;4.820;2022-12-19T15:40:44;11.70;93.60
14142;DHT22;7151;52.246;4.820;2022-12-19T15:43:19;11.70;93.50
14142;DHT22;7151;52.246;4.820;2022-12-19T15:45:46;11.70;93.50
14142;DHT22;7151;52.246;4.820;2022-12-19T15:48:14;11.70;93.40
14142;DHT22;7151;52.246;4.820;2022-12-19T15:50:41;11.70;93.40
14142;DHT22;7151;52.246;4.820;2022-12-19T15:53:19;11.70;93.40
14142;DHT22;7151;52.246;4.820;2022-12-19T15:55:46;11.70;93.40
14142;DHT22;7151;52.246;4.820;2022-12-19T15:58:13;11.70;93.30
14142;DHT22;7151;52.246;4.820;2022-12-19T16:00:42;11.70;93.30
14142;DHT22;7151;52.246;4.820;2022-12-19T16:03:13;11.80;93.30
14142;DHT22;7151;52.246;4.820;2022-12-19T16:05:39;11.70;93.20
14142;DHT22;7151;52.246;4.820;2022-12-19T16:08:11;11.80;93.20
14142;DHT22;7151;52.246;4.820;2022-12-19T16:10:36;11.80;93.20
14142;DHT22;7151;52.246;4.820;2022-12-19T16:13:02;11.80;93.20
14142;DHT22;7151;52.246;4.820;2022-12-19T16:15:31;11.80;93.10
14142;DHT22;7151;52.246;4.820;2022-12-19T16:17:59;11.70;93.10
14142;DHT22;7151;52.246;4.820;2022-12-19T16:20:30;11.80;93.10
14142;DHT22;7151;52.246;4.820;2022-12-19T16:22:56;11.70;93.00
14142;DHT22;7151;52.246;4.820;2022-12-19T16:25:27;11.80;93.00
14142;DHT22;7151;52.246;4.820;2022-12-19T16:27:57;11.80;93.00
14142;DHT22;7151;52.246;4.820;2022-12-19T16:30:32;11.80;93.00
14142;DHT22;7151;52.246;4.820;2022-12-19T16:32:59;11.80;93.00
14142;DHT22;7151;52.246;4.820;2022-12-19T16:35:26;11.80;92.90
14142;DHT22;7151;52.246;4.820;2022-12-19T16:37:52;11.80;92.90
14142;DHT22;7151;52.246;4.820;2022-12-19T16:40:21;11.80;92.90
14142;DHT22;7151;52.246;4.820;2022-12-19T16:42:48;11.80;93.00
14142;DHT22;7151;52.246;4.820;2022-12-19T16:45:21;11.80;92.90
14142;DHT22;7151;52.246;4.820;2022-12-19T16:47:48;11.80;92.80
14142;DHT22;7151;52.246;4.820;2022-12-19T16:50:34;11.80;92.80
14142;DHT22;7151;52.246;4.820;2022-12-19T16:53:00;11.80;92.70
14142;DHT22;7151;52.246;4.820;2022-12-19T16:55:26;11.80;92.70
14142;DHT22;7151;52.246;4.820;2022-12-19T16:57:54;11.80;92.70
14142;DHT22;7151;52.246;4.820;2022-12-19T17:00:21;11.80;92.70
14142;DHT22;7151;52.246;4.820;2022-12-19T17:02:56;11.80;92.70
14142;DHT22;7151;52.246;4.820;2022-12-19T17:05:28;11.70;92.70
14142;DHT22;7151;52.246;4.820;2022-12-19T17:07:56;11.70;92.60
14142;DHT22;7151;52.246;4.820;2022-12-19T17:10:27;11.80;92.70
14142;DHT22;7151;52.246;4.820;2022-12-19T17:12:54;11.70;92.60
14142;DHT22;7151;52.246;4.820;2022-12-19T17:15:23;11.70;92.60
14142;DHT22;7151;52.246;4.820;2022-12-19T17:17:50;11.70;92.60
14142;DHT22;7151;52.246;4.820;2022-12-19T17:20:18;11.70;92.50
14142;DHT22;7151;52.246;4.820;2022-12-19T17:22:45;11.70;92.50
14142;DHT22;7151;52.246;4.820;2022-12-19T17:27:45;11.70;92.50
14142;DHT22;7151;52.246;4.820;2022-12-19T17:30:11;11.70;92.50
14142;DHT22;7151;52.246;4.820;2022-12-19T17:32:36;11.70;92.50
14142;DHT22;7151;52.246;4.820;2022-12-19T17:35:02;11.70;92.50
14142;DHT22;7151;52.246;4.820;2022-12-19T17:37:27;11.70;92.40
14142;DHT22;7151;52.246;4.820;2022-12-19T17:39:53;11.70;92.40
14142;DHT22;7151;52.246;4.820;2022-12-19T17:42:22;11.70;92.40
14142;DHT22;7151;52.246;4.820;2022-12-19T17:44:48;11.70;92.40
14142;DHT22;7151;52.246;4.820;2022-12-19T17:47:15;11.60;92.40
14142;DHT22;7151;52.246;4.820;2022-12-19T17:49:41;11.60;92.40
14142;DHT22;7151;52.246;4.820;2022-12-19T17:52:13;11.60;92.40
14142;DHT22;7151;52.246;4.820;2022-12-19T17:54:39;11.60;92.40
14142;DHT22;7151;52.246;4.820;2022-12-19T17:57:13;11.60;92.40
14142;DHT22;7151;52.246;4.820;2022-12-19T17:59:39;11.60;92.40
14142;DHT22;7151;52.246;4.820;2022-12-19T18:02:23;11.60;92.40
14142;DHT22;7151;52.246;4.820;2022-12-19T18:04:50;11.60;92.30
14142;DHT22;7151;52.246;4.820;2022-12-19T18:07:17;11.60;92.40
14142;DHT22;7151;52.246;4.820;2022-12-19T18:09:43;11.60;92.30
14142;DHT22;7151;52.246;4.820;2022-12-19T18:12:09;11.60;92.30
14142;DHT22;7151;52.246;4.820;2022-12-19T18:14:35;11.60;92.30